Time;durP1;ratioP1;P1;durP2;ratioP2;P2;SDS_P1;SDS_P2;PMS_P1;PMS_P2;Temp;Humidity;BMP_temperature;BMP_pressure;BME280_temperature;BME280_humidity;BME280_pressure;Samples;Min_cycle;Max_cycle;Signal;HPM_P1;HPM_P2
2022/11/10 00:01:57;;;;;;;9.35;2.00;;;8.40;1.00;;;;;;5004400;28;20101;-82
2022/11/10 00:04:22;;;;;;;8.80;1.65;;;8.20;1.00;;;;;;4999003;28;20037;-82
2022/11/10 00:06:48;;;;;;;11.52;1.80;;;8.00;1.00;;;;;;5011999;28;20014;-82
2022/11/10 00:09:14;;;;;;;7.90;1.50;;;8.10;1.00;;;;;;5017633;28;20029;-82
2022/11/10 00:11:41;;;;;;;9.93;1.75;;;8.10;1.00;;;;;;5014368;28;20022;-82
2022/11/10 00:17:01;;;;;;;8.55;1.88;;;8.20;1.00;;;;;;5018104;28;20033;-82
2022/11/10 00:19:31;;;;;;;6.43;1.70;;;8.30;1.00;;;;;;5017553;28;20472;-82
2022/11/10 00:21:56;;;;;;;7.10;1.80;;;8.30;1.00;;;;;;5015391;28;20022;-82
2022/11/10 00:24:22;;;;;;;8.07;1.83;;;8.40;1.00;;;;;;5001083;28;20030;-82
2022/11/10 00:26:48;;;;;;;7.47;1.73;;;8.50;1.00;;;;;;5013671;28;20484;-82
2022/11/10 00:29:14;;;;;;;14.75;2.95;;;8.30;1.00;;;;;;5004673;28;20397;-82
2022/11/10 00:31:55;;;;;;;7.75;1.38;;;8.30;1.00;;;;;;5010396;28;20029;-82
2022/11/10 00:34:21;;;;;;;6.10;1.40;;;8.30;1.00;;;;;;4998725;28;20481;-82
2022/11/10 00:36:47;;;;;;;8.60;1.45;;;8.20;1.00;;;;;;5020311;28;20030;-83
2022/11/10 00:39:13;;;;;;;8.85;1.48;;;8.20;1.00;;;;;;5015083;28;20030;-82
2022/11/10 00:41:38;;;;;;;9.40;1.90;;;8.00;1.00;;;;;;5002703;28;20105;-82
2022/11/10 00:44:04;;;;;;;8.75;2.10;;;8.00;1.00;;;;;;5000742;28;20061;-82
2022/11/10 00:46:30;;;;;;;5.15;1.35;;;7.80;1.00;;;;;;5017231;28;20366;-82
2022/11/10 00:48:56;;;;;;;10.50;1.77;;;7.80;1.00;;;;;;5017986;28;20105;-82
2022/11/10 00:51:24;;;;;;;5.65;1.63;;;7.80;1.00;;;;;;5007897;28;20081;-82
2022/11/10 00:53:50;;;;;;;9.00;1.55;;;7.80;1.00;;;;;;5003717;28;20022;-82
2022/11/10 00:56:16;;;;;;;7.53;2.63;;;7.60;1.00;;;;;;5009303;28;20037;-82
2022/11/10 00:58:42;;;;;;;12.38;2.13;;;7.60;1.00;;;;;;5022350;28;20026;-82
2022/11/10 01:01:08;;;;;;;8.35;1.60;;;7.70;1.00;;;;;;5022427;28;20032;-82
2022/11/10 01:03:34;;;;;;;8.60;1.60;;;8.00;1.00;;;;;;5022750;28;20056;-82
2022/11/10 01:06:13;;;;;;;8.82;2.05;;;8.10;1.00;;;;;;5021969;28;20141;-82
2022/11/10 01:08:40;;;;;;;7.43;1.73;;;8.20;1.00;;;;;;5021457;28;20030;-82
2022/11/10 01:11:16;;;;;;;15.68;2.67;;;8.20;1.00;;;;;;5021200;28;20040;-82
2022/11/10 01:13:43;;;;;;;10.82;1.63;;;8.20;1.00;;;;;;5003879;28;20129;-82
2022/11/10 01:16:12;;;;;;;8.27;1.73;;;8.20;1.00;;;;;;5001619;28;20041;-82
2022/11/10 01:18:39;;;;;;;8.50;1.67;;;8.20;1.00;;;;;;5019467;28;20049;-82
2022/11/10 01:21:05;;;;;;;9.77;1.65;;;8.10;1.00;;;;;;5021973;28;20388;-82
2022/11/10 01:23:31;;;;;;;6.45;1.50;;;8.00;1.00;;;;;;5041144;28;20025;-82
2022/11/10 01:25:58;;;;;;;7.70;1.42;;;8.00;1.00;;;;;;5029769;28;20033;-82
2022/11/10 01:28:24;;;;;;;8.70;1.50;;;7.90;1.00;;;;;;5014947;28;20018;-82
2022/11/10 01:30:56;;;;;;;6.32;1.67;;;7.90;1.00;;;;;;4999743;28;20033;-82
2022/11/10 01:33:21;;;;;;;9.38;1.50;;;7.90;1.00;;;;;;5006593;28;20030;-82
2022/11/10 01:35:47;;;;;;;7.32;1.42;;;7.90;1.00;;;;;;5006830;28;20030;-82
2022/11/10 01:38:29;;;;;;;8.52;1.55;;;8.10;1.00;;;;;;5009162;28;20086;-82
2022/11/10 01:40:56;;;;;;;11.52;1.75;;;8.10;1.00;;;;;;5001325;28;20018;-82
2022/11/10 01:43:22;;;;;;;12.65;3.00;;;8.00;1.00;;;;;;5000626;28;20031;-82
2022/11/10 01:45:52;;;;;;;6.32;1.30;;;8.00;1.00;;;;;;5001450;28;20030;-82
2022/11/10 01:48:39;;;;;;;8.02;1.50;;;8.00;1.00;;;;;;5020002;28;20461;-82
2022/11/10 01:51:28;;;;;;;10.13;1.55;;;8.00;1.00;;;;;;5021082;28;20041;-82
2022/11/10 01:54:14;;;;;;;7.82;1.30;;;7.90;1.00;;;;;;5014226;28;20096;-82
2022/11/10 01:56:44;;;;;;;7.07;1.35;;;8.20;1.00;;;;;;5007935;28;20042;-82
2022/11/10 01:59:13;;;;;;;;;;;8.00;1.00;;;;;;5011867;28;20026;-82
2022/11/10 02:01:38;;;;;;;13.80;1.65;;;8.10;1.00;;;;;;5000704;28;20257;-82
2022/11/10 02:04:26;;;;;;;6.35;1.60;;;8.10;1.00;;;;;;5011348;28;20061;-82
2022/11/10 02:06:53;;;;;;;9.57;1.27;;;8.10;1.00;;;;;;5000928;28;20069;-82
2022/11/10 02:09:19;;;;;;;11.68;2.47;;;8.20;1.00;;;;;;5008931;28;20352;-82
2022/11/10 02:11:46;;;;;;;7.47;1.33;;;8.20;1.00;;;;;;5019305;28;20030;-82
2022/11/10 02:14:13;;;;;;;8.20;2.25;;;8.40;1.00;;;;;;5018974;28;20400;-82
2022/11/10 02:16:39;;;;;;;14.82;2.50;;;8.40;1.00;;;;;;5019451;28;20038;-82
2022/11/10 02:19:17;;;;;;;11.40;1.60;;;8.50;1.00;;;;;;5011278;28;20022;-82
2022/11/10 02:21:43;;;;;;;9.52;1.50;;;8.50;1.00;;;;;;5005947;28;20125;-82
2022/11/10 02:24:09;;;;;;;13.18;1.70;;;8.50;1.00;;;;;;5011672;28;20053;-82
2022/11/10 02:26:36;;;;;;;11.75;1.80;;;8.60;1.00;;;;;;5000295;28;20029;-82
2022/11/10 02:29:02;;;;;;;10.18;1.50;;;8.70;1.00;;;;;;4998946;28;20027;-82
2022/11/10 02:31:30;;;;;;;8.48;1.80;;;8.70;1.00;;;;;;5006045;28;20022;-82
2022/11/10 02:33:56;;;;;;;17.05;2.30;;;8.60;1.00;;;;;;5018004;28;20026;-82
2022/11/10 02:36:22;;;;;;;9.25;2.75;;;8.70;1.00;;;;;;5017435;28;20154;-82
2022/11/10 02:38:49;;;;;;;12.23;1.80;;;8.70;1.00;;;;;;5015566;28;20054;-82
2022/11/10 02:41:15;;;;;;;9.15;2.20;;;8.70;1.00;;;;;;5018978;28;20484;-82
2022/11/10 02:43:41;;;;;;;13.85;2.10;;;8.70;1.00;;;;;;5018710;28;20018;-82
2022/11/10 02:46:06;;;;;;;14.32;2.00;;;8.70;1.00;;;;;;5011297;28;20108;-82
2022/11/10 02:48:32;;;;;;;14.40;2.35;;;8.70;1.00;;;;;;5006233;28;20014;-82
2022/11/10 02:50:58;;;;;;;10.10;2.15;;;8.60;1.00;;;;;;5011701;28;20104;-82
2022/11/10 02:53:23;;;;;;;13.07;2.00;;;8.50;1.00;;;;;;4999272;28;20022;-82
2022/11/10 02:55:49;;;;;;;12.55;1.95;;;8.60;1.00;;;;;;4997567;28;20038;-81
2022/11/10 02:58:14;;;;;;;10.98;2.00;;;8.50;1.00;;;;;;4998853;28;20038;-82
2022/11/10 03:00:40;;;;;;;10.15;2.70;;;8.40;1.00;;;;;;4999101;28;20751;-82
2022/11/10 03:03:05;;;;;;;14.82;2.33;;;8.60;1.00;;;;;;5006785;28;20022;-82
2022/11/10 03:05:31;;;;;;;7.03;2.20;;;8.60;1.00;;;;;;5016107;28;20071;-82
2022/11/10 03:07:59;;;;;;;17.08;2.22;;;8.70;1.00;;;;;;5012814;28;20084;-82
2022/11/10 03:10:26;;;;;;;16.48;2.40;;;8.70;1.00;;;;;;5017737;28;20034;-82
2022/11/10 03:12:59;;;;;;;8.25;2.10;;;8.60;1.00;;;;;;5014339;28;20128;-82
2022/11/10 03:15:26;;;;;;;9.15;2.10;;;8.60;1.00;;;;;;5006581;28;20123;-82
2022/11/10 03:17:52;;;;;;;14.45;2.05;;;8.60;1.00;;;;;;5005704;28;20018;-82
2022/11/10 03:20:18;;;;;;;12.18;2.20;;;8.70;1.00;;;;;;5002829;28;20030;-82
2022/11/10 03:22:44;;;;;;;8.57;1.85;;;8.80;1.00;;;;;;4997974;28;20018;-82
2022/11/10 03:25:10;;;;;;;14.38;2.65;;;8.80;1.00;;;;;;5012731;28;20105;-82
2022/11/10 03:27:36;;;;;;;11.90;2.42;;;8.80;1.00;;;;;;5008037;28;20676;-82
2022/11/10 03:30:12;;;;;;;15.25;2.38;;;8.90;1.00;;;;;;4998021;28;20023;-82
2022/11/10 03:32:38;;;;;;;16.83;2.20;;;8.90;1.00;;;;;;4997784;28;20026;-82
2022/11/10 03:35:04;;;;;;;9.82;1.85;;;8.80;1.00;;;;;;4997151;28;20022;-82
2022/11/10 03:37:29;;;;;;;14.38;2.70;;;8.80;1.00;;;;;;5012585;28;20052;-82
2022/11/10 03:39:55;;;;;;;11.73;2.35;;;8.80;1.00;;;;;;5007790;28;20466;-82
2022/11/10 03:42:20;;;;;;;10.77;1.90;;;8.80;1.00;;;;;;5014286;28;20025;-82
2022/11/10 03:44:46;;;;;;;13.45;2.28;;;8.80;1.00;;;;;;4998781;28;20026;-82
2022/11/10 03:47:11;;;;;;;13.32;2.28;;;8.70;1.00;;;;;;4999603;28;20030;-82
2022/11/10 03:49:37;;;;;;;13.00;2.03;;;8.80;1.00;;;;;;5016145;28;20056;-82
2022/11/10 03:52:03;;;;;;;11.18;2.83;;;8.80;1.00;;;;;;5017725;28;20026;-82
2022/11/10 03:54:28;;;;;;;12.52;2.30;;;8.80;1.00;;;;;;5016181;28;20054;-82
2022/11/10 03:56:54;;;;;;;14.52;1.88;;;8.80;1.00;;;;;;5016991;28;20033;-82
2022/11/10 03:59:19;;;;;;;9.02;2.10;;;8.90;1.00;;;;;;5017442;28;20535;-82
2022/11/10 04:01:45;;;;;;;13.88;2.17;;;8.90;1.00;;;;;;5016355;28;20033;-82
2022/11/10 04:09:38;;;;;;;16.33;2.28;;;9.10;1.00;;;;;;5001003;28;20029;-82
2022/11/10 04:17:32;;;;;;;10.65;3.03;;;9.20;1.00;;;;;;5009919;28;20190;-82
2022/11/10 04:19:58;;;;;;;28.35;5.53;;;9.20;1.00;;;;;;4997217;28;20087;-82
2022/11/10 04:25:08;;;;;;;38.55;4.95;;;9.40;1.00;;;;;;4997590;28;20076;-82
2022/11/10 04:27:33;;;;;;;18.90;3.42;;;9.30;1.00;;;;;;4996161;28;20034;-82
2022/11/10 04:29:59;;;;;;;11.32;1.95;;;9.40;1.00;;;;;;4996039;28;20069;-82
2022/11/10 04:32:25;;;;;;;14.73;2.40;;;9.40;1.00;;;;;;4994962;28;20031;-82
2022/11/10 04:34:50;;;;;;;14.63;2.38;;;9.20;1.00;;;;;;4994004;28;20389;-82
2022/11/10 04:37:16;;;;;;;15.60;2.38;;;9.40;1.00;;;;;;5006164;28;20391;-82
2022/11/10 04:39:41;;;;;;;16.30;2.65;;;9.30;1.00;;;;;;5000077;28;20027;-82
2022/11/10 04:42:07;;;;;;;13.68;2.22;;;9.30;1.00;;;;;;5010673;28;20011;-82
2022/11/10 04:44:33;;;;;;;12.15;2.22;;;9.40;1.00;;;;;;5015377;28;20546;-82
2022/11/10 04:46:58;;;;;;;18.40;2.70;;;9.50;1.00;;;;;;5007528;28;20030;-82
2022/11/10 04:49:24;;;;;;;9.13;1.90;;;9.50;1.00;;;;;;5016028;28;20057;-82
2022/11/10 04:51:49;;;;;;;13.70;2.20;;;9.50;1.00;;;;;;5000890;28;20027;-82
2022/11/10 04:54:15;;;;;;;13.43;2.28;;;9.70;1.00;;;;;;5008965;28;20037;-82
2022/11/10 04:56:41;;;;;;;18.52;2.80;;;9.70;1.00;;;;;;5011346;28;20592;-82
2022/11/10 04:59:06;;;;;;;12.23;2.13;;;9.60;1.00;;;;;;5017293;28;20050;-82
2022/11/10 05:01:32;;;;;;;20.35;2.70;;;9.60;1.00;;;;;;5002836;28;20050;-82
2022/11/10 05:03:58;;;;;;;15.63;2.42;;;9.60;1.00;;;;;;5017605;28;20030;-82
2022/11/10 05:06:24;;;;;;;14.20;2.95;;;9.50;1.00;;;;;;5017779;28;20025;-82
2022/11/10 05:08:50;;;;;;;17.80;2.92;;;9.40;1.00;;;;;;5015380;28;20076;-82
2022/11/10 05:11:16;;;;;;;16.55;2.33;;;9.40;1.00;;;;;;5017719;28;20440;-82
2022/11/10 05:13:43;;;;;;;18.50;2.13;;;9.30;1.00;;;;;;5010653;28;20047;-82
2022/11/10 05:16:09;;;;;;;13.27;2.33;;;9.40;1.00;;;;;;5013889;28;20044;-82
2022/11/10 05:18:34;;;;;;;19.08;2.35;;;9.20;1.00;;;;;;4998116;28;20026;-82
2022/11/10 05:21:00;;;;;;;17.25;2.58;;;9.20;1.00;;;;;;5016971;28;20037;-82
2022/11/10 05:23:38;;;;;;;12.73;1.92;;;9.10;1.00;;;;;;5002373;28;20033;-81
2022/11/10 05:26:12;;;;;;;14.20;1.83;;;9.10;1.00;;;;;;5017223;28;20041;-82
2022/11/10 05:28:39;;;;;;;11.18;2.22;;;9.10;1.00;;;;;;5020475;28;20026;-82
2022/11/10 05:31:05;;;;;;;14.90;2.17;;;9.10;1.00;;;;;;5007494;28;20058;-82
2022/11/10 05:33:31;;;;;;;11.45;2.30;;;9.20;1.00;;;;;;5002624;28;20253;-81
2022/11/10 05:35:56;;;;;;;16.30;2.58;;;9.20;1.00;;;;;;5000785;28;20031;-82
2022/11/10 05:38:23;;;;;;;17.05;2.40;;;9.10;1.00;;;;;;5010132;28;20078;-82
2022/11/10 05:40:49;;;;;;;15.93;2.42;;;9.10;1.00;;;;;;5008621;28;20026;-82
2022/11/10 05:43:15;;;;;;;9.85;2.13;;;9.10;1.00;;;;;;5009989;28;20137;-80
2022/11/10 05:45:40;;;;;;;13.80;2.15;;;9.10;1.00;;;;;;4997688;28;20374;-80
2022/11/10 05:48:06;;;;;;;15.15;2.30;;;9.00;1.00;;;;;;5004430;28;20026;-80
2022/11/10 05:50:32;;;;;;;12.18;2.28;;;9.00;1.00;;;;;;5001162;28;20022;-81
2022/11/10 05:52:57;;;;;;;12.40;2.08;;;9.10;1.00;;;;;;4998227;28;20188;-80
2022/11/10 05:55:27;;;;;;;15.80;2.50;;;9.10;1.00;;;;;;5002404;28;20019;-80
2022/11/10 05:57:54;;;;;;;20.25;2.42;;;9.10;1.00;;;;;;5000286;28;20034;-82
2022/11/10 06:00:23;;;;;;;12.65;2.00;;;9.10;1.00;;;;;;5014973;28;20032;-81
2022/11/10 06:03:12;;;;;;;12.88;1.58;;;9.00;1.00;;;;;;5016961;28;20026;-80
2022/11/10 06:05:37;;;;;;;10.90;2.42;;;9.00;1.00;;;;;;5007716;28;20022;-80
2022/11/10 06:08:04;;;;;;;18.55;2.25;;;8.90;1.00;;;;;;5007505;28;20042;-80
2022/11/10 06:10:30;;;;;;;12.48;2.40;;;9.00;1.00;;;;;;5010589;28;20800;-80
2022/11/10 06:12:56;;;;;;;14.43;2.75;;;9.10;1.00;;;;;;5010843;28;20040;-80
2022/11/10 06:15:23;;;;;;;14.00;2.72;;;9.10;1.00;;;;;;5006337;28;20027;-81
2022/11/10 06:17:49;;;;;;;15.85;2.25;;;9.20;1.00;;;;;;5002392;28;20087;-80
2022/11/10 06:20:16;;;;;;;23.00;2.22;;;9.40;1.00;;;;;;5002726;28;20026;-80
2022/11/10 06:22:42;;;;;;;20.52;2.40;;;9.40;1.00;;;;;;5009267;28;20037;-80
2022/11/10 06:25:09;;;;;;;18.70;4.65;;;9.50;1.00;;;;;;5007081;28;20038;-80
2022/11/10 06:27:35;;;;;;;17.67;3.30;;;9.60;1.00;;;;;;5016346;28;20052;-80
2022/11/10 06:30:01;;;;;;;15.57;2.63;;;9.70;1.00;;;;;;5002782;28;20034;-80
2022/11/10 06:32:26;;;;;;;12.77;3.38;;;9.80;1.00;;;;;;5010231;28;20037;-81
2022/11/10 06:34:52;;;;;;;19.25;3.25;;;9.80;1.00;;;;;;5005327;28;20022;-80
2022/11/10 06:37:18;;;;;;;17.33;3.03;;;9.80;1.00;;;;;;5016469;28;20061;-81
2022/11/10 06:39:43;;;;;;;18.55;2.40;;;9.80;1.00;;;;;;5009391;28;20022;-80
2022/11/10 06:42:09;;;;;;;22.85;3.38;;;9.70;1.00;;;;;;5011439;28;20468;-80
2022/11/10 06:44:34;;;;;;;14.32;2.42;;;9.70;1.00;;;;;;5019107;28;20036;-80
2022/11/10 06:47:00;;;;;;;23.35;2.53;;;9.70;1.00;;;;;;5005573;28;20026;-80
2022/11/10 06:49:25;;;;;;;15.90;2.65;;;9.90;1.00;;;;;;5009837;28;20038;-80
2022/11/10 06:51:51;;;;;;;13.88;2.97;;;9.80;1.00;;;;;;5013643;28;20029;-80
2022/11/10 06:54:17;;;;;;;17.17;3.58;;;9.90;1.00;;;;;;5000158;28;20053;-81
2022/11/10 06:56:42;;;;;;;17.55;3.00;;;9.80;1.00;;;;;;5009478;28;20038;-80
2022/11/10 06:59:08;;;;;;;14.90;3.00;;;9.80;1.00;;;;;;5011740;28;20384;-80
2022/11/10 07:01:33;;;;;;;17.98;3.10;;;9.70;1.00;;;;;;5011023;28;20029;-80
2022/11/10 07:03:59;;;;;;;20.77;3.65;;;9.70;1.00;;;;;;5012748;28;20030;-80
2022/11/10 07:06:24;;;;;;;22.65;2.92;;;9.90;1.00;;;;;;5019110;28;20022;-80
2022/11/10 07:08:50;;;;;;;19.85;2.75;;;9.80;1.00;;;;;;5014180;28;20037;-80
2022/11/10 07:11:16;;;;;;;15.40;2.72;;;9.80;1.00;;;;;;5005476;28;20420;-81
2022/11/10 07:13:41;;;;;;;18.58;2.90;;;9.90;1.00;;;;;;5007269;28;20046;-81
2022/11/10 07:16:09;;;;;;;13.95;2.58;;;9.80;1.00;;;;;;5008773;28;20058;-81
2022/11/10 07:18:35;;;;;;;21.17;3.05;;;9.90;1.00;;;;;;5000731;28;20014;-80
2022/11/10 07:21:05;;;;;;;15.73;3.28;;;9.90;1.00;;;;;;5004030;28;20057;-81
2022/11/10 07:23:32;;;;;;;24.92;3.50;;;9.90;1.00;;;;;;5005960;28;20053;-80
2022/11/10 07:25:58;;;;;;;20.80;2.80;;;9.80;1.00;;;;;;5002302;28;20041;-80
2022/11/10 07:28:24;;;;;;;12.98;2.65;;;9.90;1.00;;;;;;5001847;28;20026;-81
2022/11/10 07:30:50;;;;;;;24.17;3.10;;;10.10;1.00;;;;;;5002901;28;20034;-80
2022/11/10 07:33:15;;;;;;;21.48;2.90;;;10.40;1.00;;;;;;5009323;28;20037;-81
2022/11/10 07:35:41;;;;;;;20.17;2.88;;;10.60;1.00;;;;;;5011625;28;20033;-81
2022/11/10 07:38:10;;;;;;;20.90;3.53;;;10.80;1.00;;;;;;5003909;28;20034;-81
2022/11/10 07:40:36;;;;;;;16.50;3.08;;;10.90;1.00;;;;;;5017559;28;20030;-80
2022/11/10 07:43:02;;;;;;;15.90;3.03;;;11.00;1.00;;;;;;4998835;28;20027;-80
2022/11/10 07:45:28;;;;;;;15.88;2.60;;;11.10;1.00;;;;;;5012587;28;20031;-81
2022/11/10 07:47:58;;;;;;;13.52;2.45;;;11.20;99.90;;;;;;5005790;28;20045;-80
2022/11/10 07:50:24;;;;;;;17.23;2.63;;;11.50;99.90;;;;;;5011326;28;20030;-80
2022/11/10 07:52:49;;;;;;;17.17;2.78;;;11.60;99.90;;;;;;5009121;28;20508;-80
2022/11/10 07:55:16;;;;;;;14.52;2.55;;;12.20;99.90;;;;;;5007157;28;20022;-81
2022/11/10 07:57:41;;;;;;;21.50;3.58;;;12.40;1.00;;;;;;5009499;28;20041;-80
2022/11/10 08:00:07;;;;;;;16.50;2.78;;;13.20;1.00;;;;;;5003336;28;20121;-80
2022/11/10 08:02:33;;;;;;;14.63;2.50;;;14.40;99.90;;;;;;5003088;28;20018;-81
2022/11/10 08:04:59;;;;;;;12.55;2.22;;;14.70;99.90;;;;;;5005863;28;20079;-81
2022/11/10 08:07:24;;;;;;;16.98;2.63;;;15.00;99.90;;;;;;5004242;28;20022;-81
2022/11/10 08:09:50;;;;;;;11.38;3.20;;;15.30;99.90;;;;;;5005125;28;20064;-81
2022/11/10 08:12:16;;;;;;;17.30;3.03;;;15.50;99.90;;;;;;5003337;28;20093;-80
2022/11/10 08:14:41;;;;;;;16.90;2.33;;;14.40;99.90;;;;;;5010107;28;20050;-81
2022/11/10 08:17:07;;;;;;;17.10;1.75;;;13.70;99.90;;;;;;5015401;28;20388;-81
2022/11/10 08:19:32;;;;;;;13.68;2.45;;;13.30;99.90;;;;;;5011949;28;20061;-81
2022/11/10 08:21:58;;;;;;;14.77;2.08;;;12.90;99.90;;;;;;5006680;28;20026;-81
2022/11/10 08:24:24;;;;;;;16.98;2.22;;;12.70;99.90;;;;;;5013218;28;20037;-81
2022/11/10 08:26:49;;;;;;;12.52;2.80;;;12.70;99.90;;;;;;5002839;28;20094;-80
2022/11/10 08:29:15;;;;;;;11.88;2.40;;;12.80;99.90;;;;;;5004558;28;20068;-81
2022/11/10 08:31:41;;;;;;;10.38;2.20;;;13.00;99.90;;;;;;5003229;28;20022;-81
2022/11/10 08:34:06;;;;;;;19.85;2.70;;;13.40;99.90;;;;;;4999652;28;20077;-81
2022/11/10 08:36:32;;;;;;;12.30;1.80;;;13.80;99.90;;;;;;5001266;28;20026;-81
2022/11/10 08:38:57;;;;;;;12.90;2.55;;;14.30;99.90;;;;;;5004449;28;20022;-81
2022/11/10 08:41:23;;;;;;;10.25;2.10;;;14.00;99.90;;;;;;5009117;28;20491;-81
2022/11/10 08:43:48;;;;;;;15.25;2.80;;;13.90;99.90;;;;;;5012839;28;20148;-80
2022/11/10 08:46:14;;;;;;;15.15;2.97;;;13.90;99.90;;;;;;5001279;28;20065;-80
2022/11/10 08:48:39;;;;;;;13.60;2.40;;;13.90;99.90;;;;;;5005773;28;20030;-80
2022/11/10 08:51:05;;;;;;;13.02;2.20;;;14.20;89.70;;;;;;5002692;28;20029;-80
2022/11/10 08:53:31;;;;;;;11.85;2.17;;;14.30;99.90;;;;;;4998965;28;20027;-80
2022/11/10 08:55:59;;;;;;;14.38;2.05;;;14.40;95.00;;;;;;5006528;28;20032;-80
2022/11/10 08:58:25;;;;;;;17.33;3.15;;;14.30;99.90;;;;;;5017079;28;20022;-80
2022/11/10 09:00:51;;;;;;;18.50;2.78;;;14.00;77.40;;;;;;5021893;28;20029;-81
2022/11/10 09:03:22;;;;;;;14.43;2.58;;;13.90;65.90;;;;;;5020107;28;20057;-81
2022/11/10 09:05:49;;;;;;;14.82;2.80;;;13.60;85.00;;;;;;5021525;28;20086;-81
2022/11/10 09:08:15;;;;;;;13.52;2.38;;;13.40;99.90;;;;;;5016604;28;20053;-80
2022/11/10 09:10:47;;;;;;;17.98;2.97;;;13.10;99.90;;;;;;5024496;28;20032;-80
2022/11/10 09:13:14;;;;;;;15.57;2.30;;;13.10;99.90;;;;;;5021577;28;20046;-81
2022/11/10 09:15:42;;;;;;;10.95;1.75;;;13.40;99.90;;;;;;5016944;28;20377;-81
2022/11/10 09:18:08;;;;;;;11.80;2.40;;;13.70;93.40;;;;;;5012615;28;20038;-81
2022/11/10 09:20:36;;;;;;;9.98;2.42;;;14.20;93.60;;;;;;5013293;28;20065;-81
2022/11/10 09:23:20;;;;;;;14.32;3.20;;;14.50;71.80;;;;;;5014354;28;20549;-81
2022/11/10 09:25:52;;;;;;;9.57;2.47;;;14.60;61.90;;;;;;5012410;28;20029;-81
2022/11/10 09:28:18;;;;;;;14.05;3.85;;;14.60;43.90;;;;;;5013080;28;20227;-81
2022/11/10 09:30:46;;;;;;;15.95;3.58;;;14.60;49.00;;;;;;5008088;28;20457;-81
2022/11/10 09:33:11;;;;;;;18.42;3.25;;;14.70;51.30;;;;;;5011714;28;20054;-81
2022/11/10 09:35:37;;;;;;;16.20;3.33;;;14.60;47.90;;;;;;5004332;28;20025;-81
2022/11/10 09:38:03;;;;;;;10.52;2.72;;;14.70;43.30;;;;;;5008606;28;20038;-81
2022/11/10 09:40:40;;;;;;;13.15;2.65;;;14.60;34.40;;;;;;5018394;28;20026;-81
2022/11/10 09:43:13;;;;;;;13.50;2.50;;;14.60;37.70;;;;;;5010739;28;20030;-83
2022/11/10 09:45:43;;;;;;;9.13;2.53;;;14.50;33.60;;;;;;5010040;28;20014;-83
2022/11/10 09:48:29;;;;;;;16.63;3.15;;;14.30;22.80;;;;;;5020463;28;20037;-82
2022/11/10 09:51:14;;;;;;;12.48;3.13;;;14.30;32.80;;;;;;5008845;28;20031;-83
2022/11/10 09:54:10;;;;;;;12.13;3.60;;;14.30;35.10;;;;;;5014352;28;20010;-81
2022/11/10 09:56:37;;;;;;;16.77;3.50;;;14.10;38.00;;;;;;5008663;28;20106;-82
2022/11/10 09:59:28;;;;;;;15.55;3.63;;;14.20;44.40;;;;;;5008016;28;20128;-81
2022/11/10 10:02:04;;;;;;;12.07;3.88;;;14.20;40.50;;;;;;4998403;28;20098;-80
2022/11/10 10:04:54;;;;;;;16.35;3.85;;;14.40;44.60;;;;;;5013100;28;20022;-81
2022/11/10 10:07:31;;;;;;;13.50;3.40;;;14.30;35.20;;;;;;5004013;28;20100;-81
2022/11/10 10:10:15;;;;;;;15.70;3.83;;;14.30;30.30;;;;;;5012456;28;20034;-80
2022/11/10 10:13:01;;;;;;;13.18;3.13;;;14.10;35.00;;;;;;5007517;28;20487;-80
2022/11/10 10:15:27;;;;;;;16.38;3.00;;;14.00;46.10;;;;;;5009204;28;20022;-81
2022/11/10 10:18:01;;;;;;;19.23;3.22;;;13.90;46.70;;;;;;5004790;28;20441;-81
2022/11/10 10:20:55;;;;;;;8.25;3.17;;;14.00;44.70;;;;;;5005427;28;20427;-81
2022/11/10 10:23:33;;;;;;;16.08;2.97;;;14.00;23.70;;;;;;5012988;28;20622;-82
2022/11/10 10:26:00;;;;;;;10.77;2.65;;;14.30;36.20;;;;;;5008259;28;20455;-81
2022/11/10 10:28:37;;;;;;;19.38;3.97;;;14.60;23.90;;;;;;5012611;28;20022;-81
2022/11/10 10:31:23;;;;;;;19.35;4.15;;;14.60;21.80;;;;;;5006249;28;20062;-81
2022/11/10 10:33:50;;;;;;;13.30;4.05;;;14.80;19.00;;;;;;5012482;28;20455;-81
2022/11/10 10:36:28;;;;;;;12.18;3.95;;;14.90;19.50;;;;;;5010722;28;20044;-81
2022/11/10 10:39:06;;;;;;;20.63;5.82;;;14.90;16.60;;;;;;5005702;28;20027;-81
2022/11/10 10:41:33;;;;;;;15.02;4.05;;;14.80;18.60;;;;;;5002953;28;20046;-81
2022/11/10 10:44:12;;;;;;;17.88;3.80;;;14.80;17.00;;;;;;5013190;28;20026;-81
2022/11/10 10:46:56;;;;;;;15.20;3.40;;;14.70;19.00;;;;;;5009323;28;20045;-81
2022/11/10 10:49:25;;;;;;;18.27;4.03;;;14.60;23.50;;;;;;5008864;28;20025;-81
2022/11/10 10:52:09;;;;;;;17.58;4.07;;;14.50;26.00;;;;;;5013622;28;20105;-81
2022/11/10 10:54:37;;;;;;;13.35;4.60;;;14.80;19.90;;;;;;5013092;28;20030;-82
2022/11/10 10:57:19;;;;;;;14.75;4.20;;;14.80;20.10;;;;;;5008580;28;20359;-81
2022/11/10 10:59:45;;;;;;;18.55;4.82;;;14.80;8.30;;;;;;5000635;28;20030;-81
2022/11/10 11:02:23;;;;;;;15.18;4.07;;;14.60;17.00;;;;;;5010936;28;20049;-81
2022/11/10 11:05:07;;;;;;;19.00;4.72;;;14.40;20.30;;;;;;5014104;28;20342;-81
2022/11/10 11:07:33;;;;;;;15.48;4.78;;;14.30;25.00;;;;;;5008238;28;20022;-81
2022/11/10 11:10:00;;;;;;;16.77;5.22;;;14.30;24.30;;;;;;5011855;28;20036;-81
2022/11/10 11:12:30;;;;;;;19.52;6.03;;;14.20;24.10;;;;;;5000303;28;20014;-81
2022/11/10 11:15:27;;;;;;;17.55;4.50;;;14.00;27.30;;;;;;5004867;28;20412;-81
2022/11/10 11:17:58;;;;;;;18.73;4.82;;;14.00;28.80;;;;;;5000834;28;20034;-80
2022/11/10 11:20:56;;;;;;;20.23;4.78;;;13.90;40.20;;;;;;5003990;28;20133;-80
2022/11/10 11:23:47;;;;;;;17.15;4.10;;;13.80;39.20;;;;;;5001324;28;20023;-80
2022/11/10 11:26:54;;;;;;;16.48;4.63;;;13.80;36.00;;;;;;4995351;28;20073;-80
2022/11/10 11:29:41;;;;;;;15.00;4.47;;;13.90;36.30;;;;;;4999956;28;20045;-80
2022/11/10 11:32:34;;;;;;;17.20;4.85;;;13.90;38.30;;;;;;4994948;28;20034;-80
2022/11/10 11:35:37;;;;;;;14.23;4.13;;;13.90;40.40;;;;;;4998305;28;20030;-80
2022/11/10 11:38:36;;;;;;;12.05;4.50;;;14.00;43.80;;;;;;5000896;28;20038;-81
2022/11/10 11:41:46;;;;;;;14.50;4.40;;;13.90;42.20;;;;;;4984509;28;20039;-81
2022/11/10 11:44:18;;;;;;;15.60;4.70;;;14.00;39.10;;;;;;4998514;28;20113;-81
2022/11/10 11:47:01;;;;;;;14.55;3.90;;;14.00;44.10;;;;;;4995746;28;20022;-81
2022/11/10 11:49:38;;;;;;;13.43;3.75;;;14.00;41.20;;;;;;5002089;28;20034;-81
2022/11/10 11:52:14;;;;;;;19.25;4.00;;;14.00;44.30;;;;;;5007375;28;20032;-81
2022/11/10 11:55:03;;;;;;;15.48;3.58;;;14.00;43.00;;;;;;5010173;28;20030;-81
2022/11/10 11:57:51;;;;;;;20.42;4.53;;;14.10;43.00;;;;;;5003898;28;20041;-80
2022/11/10 12:00:18;;;;;;;12.45;3.60;;;14.30;41.80;;;;;;5008433;28;20030;-81
2022/11/10 12:03:09;;;;;;;13.85;4.18;;;14.30;41.80;;;;;;5007095;28;20111;-81
2022/11/10 12:06:13;;;;;;;13.90;3.67;;;14.30;42.50;;;;;;5000289;28;20496;-81
2022/11/10 12:09:00;;;;;;;12.13;3.08;;;14.30;40.20;;;;;;5000014;28;20508;-81
2022/11/10 12:11:43;;;;;;;16.38;3.70;;;14.20;45.50;;;;;;5007062;28;20037;-81
2022/11/10 12:14:16;;;;;;;16.85;3.70;;;14.30;47.80;;;;;;5000477;28;20050;-81
2022/11/10 12:17:03;;;;;;;14.43;3.42;;;14.40;53.30;;;;;;5006410;28;20131;-83
2022/11/10 12:19:37;;;;;;;16.05;3.40;;;14.40;53.30;;;;;;5009430;28;20136;-83
2022/11/10 12:22:39;;;;;;;13.95;3.30;;;14.20;57.50;;;;;;5008370;28;20025;-83
2022/11/10 12:25:17;;;;;;;12.27;3.28;;;14.20;60.70;;;;;;4990209;28;20448;-83
2022/11/10 12:27:49;;;;;;;20.45;5.70;;;14.10;59.40;;;;;;5006807;28;20061;-83
2022/11/10 12:30:16;;;;;;;25.17;5.80;;;14.00;79.10;;;;;;5013821;28;20057;-83
2022/11/10 12:32:51;;;;;;;22.60;6.72;;;14.10;80.00;;;;;;5001170;28;20046;-82
2022/11/10 12:35:40;;;;;;;20.23;4.65;;;14.20;76.20;;;;;;5006144;28;20037;-82
2022/11/10 12:38:39;;;;;;;19.25;3.65;;;14.30;70.40;;;;;;5009457;28;20124;-82
2022/11/10 12:41:11;;;;;;;16.13;3.97;;;14.30;65.40;;;;;;5004572;28;20034;-82
2022/11/10 12:43:55;;;;;;;13.27;3.33;;;14.20;72.40;;;;;;5006243;28;20049;-82
2022/11/10 12:46:21;;;;;;;24.10;4.20;;;14.10;75.00;;;;;;5001441;28;20052;-81
2022/11/10 12:49:20;;;;;;;12.40;2.72;;;14.00;81.70;;;;;;5007561;28;20941;-82
2022/11/10 12:52:14;;;;;;;19.00;3.67;;;13.90;84.20;;;;;;5004145;28;20108;-81
2022/11/10 12:54:43;;;;;;;16.58;3.45;;;14.00;99.90;;;;;;5007822;28;20393;-82
2022/11/10 12:57:23;;;;;;;22.25;4.20;;;14.10;99.90;;;;;;5008964;28;20038;-82
2022/11/10 12:59:59;;;;;;;19.27;3.58;;;14.20;99.90;;;;;;5003035;28;20031;-82
2022/11/10 13:02:31;;;;;;;17.25;4.35;;;14.20;99.90;;;;;;5005471;28;20114;-82
2022/11/10 13:05:36;;;;;;;17.63;3.80;;;14.30;99.90;;;;;;5009679;28;20030;-83
2022/11/10 13:08:13;;;;;;;21.50;3.60;;;14.40;99.90;;;;;;5005840;28;20046;-80
2022/11/10 13:10:53;;;;;;;21.77;4.22;;;14.30;99.90;;;;;;5003403;28;20112;-81
2022/11/10 13:13:20;;;;;;;17.38;4.75;;;14.30;99.90;;;;;;5001017;28;20046;-81
2022/11/10 13:15:49;;;;;;;16.20;3.42;;;14.20;99.90;;;;;;5002936;28;20588;-81
2022/11/10 13:18:30;;;;;;;19.60;3.55;;;14.30;99.90;;;;;;5001615;28;20109;-80
2022/11/10 13:20:58;;;;;;;14.43;3.70;;;14.20;99.90;;;;;;5010701;28;20025;-80
2022/11/10 13:23:32;;;;;;;17.17;3.85;;;14.20;99.90;;;;;;5027648;28;20375;-80
2022/11/10 13:26:08;;;;;;;15.77;2.72;;;14.20;99.90;;;;;;5040051;28;20029;-80